Time;durP1;ratioP1;P1;durP2;ratioP2;P2;SDS_P1;SDS_P2;PMS_P1;PMS_P2;Temp;Humidity;BMP_temperature;BMP_pressure;BME280_temperature;BME280_humidity;BME280_pressure;Samples;Min_cycle;Max_cycle;Signal;HPM_P1;HPM_P2
2023/03/16 03:20:17;;;;;;;0.10;0.10;;;;;;;;;;5750005;23;20038;-85
2023/03/16 07:17:04;;;;;;;0.20;0.20;;;;;;;;;;4795773;29;20050;-80
2023/03/16 07:19:32;;;;;;;0.20;0.20;;;;;;;;;;4784562;29;20564;-80
2023/03/16 07:21:58;;;;;;;0.20;0.20;;;;;;;;;;4782964;29;20057;-81
2023/03/16 07:24:24;;;;;;;0.20;0.20;;;;;;;;;;4785752;29;20078;-80
2023/03/16 07:26:51;;;;;;;0.20;0.20;;;;;;;;;;4767221;30;20051;-82
2023/03/16 07:29:17;;;;;;;0.20;0.20;;;;;;;;;;4789683;29;20058;-81
2023/03/16 07:31:44;;;;;;;0.20;0.20;;;;;;;;;;4794596;29;20121;-79
2023/03/16 07:34:10;;;;;;;0.20;0.20;;;;;;;;;;4801857;29;20058;-79
2023/03/16 07:36:36;;;;;;;0.20;0.20;;;;;;;;;;4802032;29;20086;-78
2023/03/16 07:39:03;;;;;;;0.20;0.20;;;;;;;;;;4802043;29;20504;-75
2023/03/16 07:41:32;;;;;;;0.20;0.20;;;;;;;;;;4794880;29;20059;-74
2023/03/16 07:43:58;;;;;;;0.20;0.20;;;;;;;;;;4803197;29;20134;-75
2023/03/16 07:46:24;;;;;;;0.20;0.20;;;;;;;;;;4800882;29;20095;-76
2023/03/16 07:48:53;;;;;;;0.17;0.17;;;;;;;;;;4794212;29;20462;-75
2023/03/16 07:51:20;;;;;;;0.20;0.20;;;;;;;;;;4778307;29;20042;-76
2023/03/16 07:53:46;;;;;;;0.20;0.20;;;;;;;;;;4796938;29;20082;-75
2023/03/16 07:56:12;;;;;;;0.10;0.10;;;;;;;;;;4799109;29;20086;-76
2023/03/16 07:58:38;;;;;;;0.17;0.17;;;;;;;;;;4787651;29;20061;-75
2023/03/16 08:01:04;;;;;;;0.20;0.20;;;;;;;;;;4785712;29;20048;-75
2023/03/16 08:03:30;;;;;;;0.20;0.20;;;;;;;;;;4784505;29;20054;-76
2023/03/16 08:05:57;;;;;;;0.20;0.20;;;;;;;;;;4790035;29;20078;-76
2023/03/16 08:08:26;;;;;;;0.10;0.10;;;;;;;;;;4787112;29;20069;-76
2023/03/16 08:10:52;;;;;;;0.15;0.15;;;;;;;;;;4802200;29;20047;-75
2023/03/16 08:13:19;;;;;;;0.20;0.20;;;;;;;;;;4792782;29;20065;-76
2023/03/16 08:15:46;;;;;;;0.20;0.20;;;;;;;;;;4801725;29;20055;-75
2023/03/16 08:18:12;;;;;;;0.10;0.10;;;;;;;;;;4800145;29;20530;-76
2023/03/16 08:20:38;;;;;;;0.20;0.20;;;;;;;;;;4783452;29;20138;-75
2023/03/16 08:23:05;;;;;;;0.20;0.20;;;;;;;;;;4799702;29;20447;-76
2023/03/16 08:25:33;;;;;;;0.20;0.20;;;;;;;;;;4781697;29;20048;-75
2023/03/16 08:28:01;;;;;;;0.10;0.10;;;;;;;;;;4779956;29;20400;-76
2023/03/16 08:30:27;;;;;;;0.20;0.20;;;;;;;;;;4800479;29;20054;-75
2023/03/16 08:32:53;;;;;;;0.17;0.17;;;;;;;;;;4786284;29;20051;-75
2023/03/16 08:35:19;;;;;;;0.20;0.20;;;;;;;;;;4794488;29;20047;-75
2023/03/16 08:37:45;;;;;;;0.20;0.20;;;;;;;;;;4785649;29;20359;-75
2023/03/16 08:40:15;;;;;;;0.15;0.15;;;;;;;;;;4800045;29;20047;-76
2023/03/16 08:42:43;;;;;;;0.20;0.20;;;;;;;;;;4798458;29;20043;-75
2023/03/16 08:45:13;;;;;;;0.20;0.20;;;;;;;;;;4788541;29;20389;-75
2023/03/16 08:47:39;;;;;;;0.20;0.20;;;;;;;;;;4784711;29;20089;-77
2023/03/16 08:50:06;;;;;;;0.20;0.20;;;;;;;;;;4802992;29;20546;-76
2023/03/16 08:52:35;;;;;;;0.20;0.20;;;;;;;;;;4805547;29;20043;-76
2023/03/16 08:55:03;;;;;;;0.20;0.20;;;;;;;;;;4786149;29;20047;-76
2023/03/16 08:57:32;;;;;;;0.20;0.20;;;;;;;;;;4801376;29;20093;-76
2023/03/16 08:59:58;;;;;;;0.10;0.10;;;;;;;;;;4774635;29;20047;-75
2023/03/16 09:02:27;;;;;;;0.20;0.20;;;;;;;;;;4799923;29;20054;-77
2023/03/16 09:04:55;;;;;;;0.20;0.20;;;;;;;;;;4782050;29;20465;-75
2023/03/16 09:07:21;;;;;;;0.13;0.13;;;;;;;;;;4800309;29;20147;-75
2023/03/16 09:09:47;;;;;;;0.20;0.20;;;;;;;;;;4772457;30;20564;-75
2023/03/16 09:12:13;;;;;;;0.15;0.15;;;;;;;;;;4790463;29;20149;-76
2023/03/16 09:14:39;;;;;;;0.20;0.20;;;;;;;;;;4805836;29;20050;-76
2023/03/16 09:17:10;;;;;;;0.10;0.10;;;;;;;;;;4803688;29;20054;-76
2023/03/16 09:19:36;;;;;;;0.20;0.20;;;;;;;;;;4802688;29;20409;-75
2023/03/16 09:22:02;;;;;;;0.15;0.15;;;;;;;;;;4788876;29;20051;-76
2023/03/16 09:24:29;;;;;;;0.20;0.20;;;;;;;;;;4802185;29;20059;-76
2023/03/16 09:26:55;;;;;;;0.20;0.20;;;;;;;;;;4802489;29;20138;-75
2023/03/16 09:29:22;;;;;;;0.20;0.20;;;;;;;;;;4805603;29;20122;-75
2023/03/16 09:31:48;;;;;;;0.20;0.20;;;;;;;;;;4792005;29;20059;-76
2023/03/16 09:34:15;;;;;;;0.10;0.10;;;;;;;;;;4787126;30;20100;-76
2023/03/16 09:36:41;;;;;;;0.13;0.13;;;;;;;;;;4795671;29;20061;-80
2023/03/16 09:39:07;;;;;;;0.20;0.20;;;;;;;;;;4789600;29;20047;-79
2023/03/16 09:41:52;;;;;;;0.20;0.20;;;;;;;;;;4777083;29;20201;-81
2023/03/16 09:44:33;;;;;;;0.20;0.20;;;;;;;;;;4800553;29;20055;-80
2023/03/16 09:47:06;;;;;;;0.20;0.20;;;;;;;;;;4803270;29;20046;-81
2023/03/16 09:49:37;;;;;;;0.20;0.20;;;;;;;;;;4800737;29;20122;-79
2023/03/16 09:52:12;;;;;;;0.20;0.20;;;;;;;;;;4793997;29;20059;-81
2023/03/16 09:54:48;;;;;;;0.10;0.10;;;;;;;;;;4793313;29;20118;-81
2023/03/16 09:57:43;;;;;;;0.10;0.10;;;;;;;;;;4785959;30;20057;-82
2023/03/16 10:00:17;;;;;;;0.20;0.20;;;;;;;;;;4755984;30;20491;-81
2023/03/16 10:02:55;;;;;;;0.20;0.20;;;;;;;;;;4783215;29;20466;-82
2023/03/16 10:05:22;;;;;;;0.10;0.10;;;;;;;;;;4803598;29;20583;-81
2023/03/16 10:08:07;;;;;;;0.20;0.20;;;;;;;;;;4789024;29;20065;-81
2023/03/16 10:10:43;;;;;;;0.20;0.20;;;;;;;;;;4804079;29;20058;-81
2023/03/16 10:13:27;;;;;;;0.20;0.20;;;;;;;;;;4801166;29;20145;-81
2023/03/16 10:15:59;;;;;;;0.20;0.20;;;;;;;;;;4787975;29;20108;-81
2023/03/16 10:18:31;;;;;;;0.20;0.20;;;;;;;;;;4795849;29;20063;-82
2023/03/16 10:20:58;;;;;;;0.20;0.20;;;;;;;;;;4796541;29;20050;-81
2023/03/16 10:23:25;;;;;;;0.20;0.20;;;;;;;;;;4785013;30;20055;-82
2023/03/16 10:25:55;;;;;;;0.20;0.20;;;;;;;;;;4810246;29;20250;-81
2023/03/16 10:28:23;;;;;;;0.20;0.20;;;;;;;;;;4803427;29;20055;-81
2023/03/16 10:30:50;;;;;;;0.10;0.10;;;;;;;;;;4787991;29;20051;-82
2023/03/16 10:33:25;;;;;;;0.20;0.20;;;;;;;;;;4804570;29;20050;-81
2023/03/16 10:35:57;;;;;;;0.20;0.20;;;;;;;;;;4803838;29;20050;-82
2023/03/16 10:38:26;;;;;;;0.20;0.20;;;;;;;;;;4803139;29;20445;-84
2023/03/16 10:40:53;;;;;;;0.20;0.20;;;;;;;;;;4803052;29;20059;-81
2023/03/16 10:43:19;;;;;;;0.10;0.10;;;;;;;;;;4789296;29;20055;-81
2023/03/16 10:45:49;;;;;;;0.15;0.15;;;;;;;;;;4801826;29;20047;-82
2023/03/16 10:48:20;;;;;;;0.20;0.20;;;;;;;;;;4796746;29;20047;-82
2023/03/16 10:50:51;;;;;;;0.20;0.20;;;;;;;;;;4785081;29;20050;-82
2023/03/16 10:53:25;;;;;;;0.20;0.20;;;;;;;;;;4799757;29;20078;-81
2023/03/16 10:55:59;;;;;;;0.20;0.20;;;;;;;;;;4769861;30;20051;-81
2023/03/16 10:58:32;;;;;;;0.20;0.20;;;;;;;;;;4795820;29;20059;-81
2023/03/16 11:00:59;;;;;;;0.20;0.20;;;;;;;;;;4802686;29;20047;-81
2023/03/16 11:03:28;;;;;;;0.20;0.20;;;;;;;;;;4799466;29;20146;-81
2023/03/16 11:06:04;;;;;;;0.20;0.20;;;;;;;;;;4804013;29;20065;-83
2023/03/16 11:08:34;;;;;;;0.20;0.20;;;;;;;;;;4809987;29;20077;-81
2023/03/16 11:11:01;;;;;;;0.20;0.20;;;;;;;;;;4801699;29;20090;-82
2023/03/16 11:13:36;;;;;;;0.20;0.20;;;;;;;;;;4785953;29;20059;-80
2023/03/16 11:16:06;;;;;;;0.20;0.20;;;;;;;;;;4799632;29;20097;-81
2023/03/16 11:18:42;;;;;;;0.20;0.20;;;;;;;;;;4784113;29;20058;-81
2023/03/16 11:21:21;;;;;;;0.20;0.20;;;;;;;;;;4786770;29;20133;-81
2023/03/16 11:23:52;;;;;;;0.20;0.20;;;;;;;;;;4777900;29;20066;-81
2023/03/16 11:26:18;;;;;;;;;;;;;;;;;;4785895;29;20059;-81
2023/03/16 11:28:47;;;;;;;0.20;0.20;;;;;;;;;;4803650;29;19932;-82
2023/03/16 11:31:20;;;;;;;0.10;0.10;;;;;;;;;;4785821;29;20051;-79
2023/03/16 11:33:48;;;;;;;0.20;0.20;;;;;;;;;;4784979;29;20512;-82
2023/03/16 11:36:20;;;;;;;0.20;0.20;;;;;;;;;;4801948;29;20051;-82
2023/03/16 11:39:05;;;;;;;0.20;0.20;;;;;;;;;;4801936;29;20446;-82
2023/03/16 11:41:52;;;;;;;0.20;0.20;;;;;;;;;;4799426;29;20058;-80
2023/03/16 11:44:36;;;;;;;0.20;0.20;;;;;;;;;;4747303;30;20545;-82
2023/03/16 11:47:23;;;;;;;0.20;0.20;;;;;;;;;;4784644;29;20070;-80
2023/03/16 11:50:06;;;;;;;0.10;0.10;;;;;;;;;;4769417;30;20047;-81
2023/03/16 11:52:35;;;;;;;0.20;0.20;;;;;;;;;;4785192;30;20524;-80
2023/03/16 11:55:04;;;;;;;0.17;0.17;;;;;;;;;;4769880;29;20389;-80
2023/03/16 11:57:35;;;;;;;0.20;0.20;;;;;;;;;;4783762;29;20054;-80
2023/03/16 12:00:13;;;;;;;0.10;0.10;;;;;;;;;;4786252;29;20051;-81
2023/03/16 12:02:52;;;;;;;0.20;0.20;;;;;;;;;;4800108;29;20062;-81
2023/03/16 12:05:33;;;;;;;0.10;0.10;;;;;;;;;;4783350;29;20051;-79
2023/03/16 12:08:05;;;;;;;0.20;0.20;;;;;;;;;;4801325;29;20054;-78
2023/03/16 12:11:04;;;;;;;0.15;0.15;;;;;;;;;;4804975;29;20308;-78
2023/03/16 12:13:37;;;;;;;0.10;0.10;;;;;;;;;;4793221;29;20116;-79
2023/03/16 12:16:22;;;;;;;0.20;0.20;;;;;;;;;;4793152;29;20046;-81
2023/03/16 12:19:02;;;;;;;0.20;0.20;;;;;;;;;;4788573;29;20051;-80
2023/03/16 12:21:38;;;;;;;0.20;0.20;;;;;;;;;;4802671;29;20043;-79
2023/03/16 12:24:09;;;;;;;0.20;0.20;;;;;;;;;;4781098;29;20050;-80
2023/03/16 12:26:38;;;;;;;0.10;0.10;;;;;;;;;;4785575;29;20062;-81
2023/03/16 12:29:25;;;;;;;0.20;0.20;;;;;;;;;;4804696;29;20053;-81
2023/03/16 12:32:03;;;;;;;0.10;0.10;;;;;;;;;;4767774;29;20134;-80
2023/03/16 12:34:49;;;;;;;0.10;0.10;;;;;;;;;;4806433;29;20050;-81
2023/03/16 12:37:27;;;;;;;0.10;0.10;;;;;;;;;;4804351;29;20492;-80
2023/03/16 12:40:11;;;;;;;0.10;0.10;;;;;;;;;;4789575;29;20046;-80
2023/03/16 12:42:41;;;;;;;0.10;0.10;;;;;;;;;;4787725;29;20057;-80
2023/03/16 12:45:28;;;;;;;0.20;0.20;;;;;;;;;;4805951;29;20138;-81
2023/03/16 12:48:13;;;;;;;0.20;0.20;;;;;;;;;;4805466;29;20054;-81
2023/03/16 12:50:56;;;;;;;0.20;0.20;;;;;;;;;;4799928;29;20066;-81
2023/03/16 12:53:39;;;;;;;0.10;0.10;;;;;;;;;;4779578;29;20063;-80
2023/03/16 12:56:08;;;;;;;0.15;0.15;;;;;;;;;;4804390;29;20046;-80
2023/03/16 12:58:35;;;;;;;0.20;0.20;;;;;;;;;;4788072;29;20059;-80
2023/03/16 13:01:02;;;;;;;0.20;0.20;;;;;;;;;;4789253;29;20047;-81
2023/03/16 13:03:28;;;;;;;0.10;0.10;;;;;;;;;;4789599;29;20408;-81
2023/03/16 13:06:03;;;;;;;0.17;0.17;;;;;;;;;;4789162;29;20089;-81
2023/03/16 13:08:41;;;;;;;0.10;0.10;;;;;;;;;;4794895;29;20055;-81
2023/03/16 13:11:08;;;;;;;0.20;0.20;;;;;;;;;;4780209;29;20059;-80
2023/03/16 13:13:36;;;;;;;0.10;0.10;;;;;;;;;;4788252;29;20074;-80
2023/03/16 13:16:09;;;;;;;0.10;0.10;;;;;;;;;;4789311;29;20111;-82
2023/03/16 13:18:43;;;;;;;0.20;0.20;;;;;;;;;;4797047;29;20128;-80
2023/03/16 13:21:33;;;;;;;0.20;0.20;;;;;;;;;;4794812;29;20114;-81
2023/03/16 13:24:20;;;;;;;0.20;0.20;;;;;;;;;;4788582;29;20051;-80
2023/03/16 13:26:53;;;;;;;0.20;0.20;;;;;;;;;;4776487;29;20055;-80
2023/03/16 13:29:26;;;;;;;0.10;0.10;;;;;;;;;;4805744;29;20116;-80
2023/03/16 13:31:53;;;;;;;0.20;0.20;;;;;;;;;;4804489;29;20055;-81
2023/03/16 13:34:20;;;;;;;0.20;0.20;;;;;;;;;;4788549;29;20055;-81
2023/03/16 13:36:46;;;;;;;0.20;0.20;;;;;;;;;;4787384;30;20055;-81
2023/03/16 13:39:15;;;;;;;0.10;0.10;;;;;;;;;;4786963;30;20055;-80
2023/03/16 13:41:41;;;;;;;0.10;0.10;;;;;;;;;;4779393;30;20059;-80
2023/03/16 13:44:13;;;;;;;0.20;0.20;;;;;;;;;;4771858;29;20504;-81
2023/03/16 13:46:39;;;;;;;0.20;0.20;;;;;;;;;;4786439;30;20117;-80
2023/03/16 13:49:05;;;;;;;0.20;0.20;;;;;;;;;;4771087;30;20515;-81
2023/03/16 13:51:34;;;;;;;0.10;0.10;;;;;;;;;;4781545;29;20576;-81
2023/03/16 13:54:03;;;;;;;0.20;0.20;;;;;;;;;;4804909;29;20042;-80
2023/03/16 13:56:31;;;;;;;0.10;0.10;;;;;;;;;;4788366;29;20051;-81
2023/03/16 13:58:58;;;;;;;0.20;0.20;;;;;;;;;;4788293;29;20141;-80
2023/03/16 14:01:28;;;;;;;0.10;0.10;;;;;;;;;;4813264;29;20050;-80
2023/03/16 14:03:55;;;;;;;0.10;0.10;;;;;;;;;;4808842;29;20492;-80
2023/03/16 14:06:26;;;;;;;0.20;0.20;;;;;;;;;;4789495;29;20316;-80
2023/03/16 14:08:56;;;;;;;0.20;0.20;;;;;;;;;;4785600;30;20080;-80
2023/03/16 14:11:22;;;;;;;0.10;0.10;;;;;;;;;;4778810;29;20115;-81
2023/03/16 14:13:53;;;;;;;0.20;0.20;;;;;;;;;;4804479;29;20058;-80
2023/03/16 14:16:19;;;;;;;;;;;;;;;;;;4803117;29;20437;-81
2023/03/16 14:18:47;;;;;;;0.15;0.15;;;;;;;;;;4804012;29;19935;-80
2023/03/16 14:21:24;;;;;;;0.20;0.20;;;;;;;;;;4794793;29;20039;-79
2023/03/16 14:23:52;;;;;;;0.10;0.10;;;;;;;;;;4782222;29;20134;-80
2023/03/16 14:26:19;;;;;;;0.20;0.20;;;;;;;;;;4800125;29;20126;-80
2023/03/16 14:29:02;;;;;;;0.10;0.10;;;;;;;;;;4789284;29;20059;-79
2023/03/16 14:31:35;;;;;;;0.20;0.20;;;;;;;;;;4778957;29;20066;-80
2023/03/16 14:34:03;;;;;;;0.20;0.20;;;;;;;;;;4803994;29;20051;-79
2023/03/16 14:36:37;;;;;;;0.10;0.10;;;;;;;;;;4784996;29;20057;-79
2023/03/16 14:39:13;;;;;;;0.20;0.20;;;;;;;;;;4802889;29;20058;-80
2023/03/16 14:41:39;;;;;;;0.20;0.20;;;;;;;;;;4785839;29;20058;-79
2023/03/16 14:44:15;;;;;;;0.20;0.20;;;;;;;;;;4787113;29;20057;-81
2023/03/16 14:46:41;;;;;;;0.10;0.10;;;;;;;;;;4799803;29;20107;-80
2023/03/16 14:49:21;;;;;;;0.20;0.20;;;;;;;;;;4786181;30;20455;-80
2023/03/16 14:51:48;;;;;;;0.10;0.10;;;;;;;;;;4787090;29;20407;-80
2023/03/16 14:54:15;;;;;;;0.10;0.10;;;;;;;;;;4770062;30;20066;-80
2023/03/16 14:56:42;;;;;;;0.20;0.20;;;;;;;;;;4784644;30;20055;-82
2023/03/16 14:59:11;;;;;;;0.20;0.20;;;;;;;;;;4770064;30;20059;-80
2023/03/16 15:01:38;;;;;;;0.20;0.20;;;;;;;;;;4778693;29;20135;-80
2023/03/16 15:04:06;;;;;;;0.10;0.10;;;;;;;;;;4803942;29;20416;-81
2023/03/16 15:06:33;;;;;;;0.20;0.20;;;;;;;;;;4817465;29;20066;-81
2023/03/16 15:09:00;;;;;;;0.10;0.10;;;;;;;;;;4802647;29;20111;-81
2023/03/16 15:11:28;;;;;;;0.10;0.10;;;;;;;;;;4794605;29;20130;-79
2023/03/16 15:14:03;;;;;;;0.20;0.20;;;;;;;;;;4770679;29;20055;-80
2023/03/16 15:16:29;;;;;;;0.20;0.20;;;;;;;;;;4772965;30;20051;-80
2023/03/16 15:18:55;;;;;;;0.15;0.15;;;;;;;;;;4792289;29;20339;-79
2023/03/16 15:21:22;;;;;;;0.20;0.20;;;;;;;;;;4784812;29;20055;-81
2023/03/16 15:23:51;;;;;;;0.13;0.13;;;;;;;;;;4801584;29;20264;-80
2023/03/16 15:26:21;;;;;;;0.20;0.20;;;;;;;;;;4801316;29;20107;-80
2023/03/16 15:28:47;;;;;;;0.20;0.20;;;;;;;;;;4790327;29;20089;-79
2023/03/16 15:31:13;;;;;;;0.20;0.20;;;;;;;;;;4803396;29;20046;-80
2023/03/16 15:33:41;;;;;;;0.15;0.15;;;;;;;;;;4801163;29;20135;-79
2023/03/16 15:36:14;;;;;;;0.10;0.10;;;;;;;;;;4815076;29;20089;-80
2023/03/16 15:38:42;;;;;;;0.10;0.10;;;;;;;;;;4799844;29;20392;-79
2023/03/16 15:41:10;;;;;;;0.17;0.17;;;;;;;;;;4780998;29;20042;-80
2023/03/16 15:43:39;;;;;;;0.15;0.15;;;;;;;;;;4799222;29;20050;-80
2023/03/16 15:46:06;;;;;;;0.20;0.20;;;;;;;;;;4781681;29;21506;-80
2023/03/16 15:48:32;;;;;;;0.10;0.10;;;;;;;;;;4796217;29;20047;-78
2023/03/16 15:51:00;;;;;;;0.10;0.10;;;;;;;;;;4803783;29;20135;-79
2023/03/16 15:53:30;;;;;;;0.10;0.10;;;;;;;;;;4797366;29;20055;-79
2023/03/16 15:55:58;;;;;;;0.10;0.10;;;;;;;;;;4783871;29;20384;-79
2023/03/16 15:58:27;;;;;;;0.10;0.10;;;;;;;;;;4782137;29;20055;-79
2023/03/16 16:00:55;;;;;;;0.20;0.20;;;;;;;;;;4799665;29;20043;-80
2023/03/16 16:03:22;;;;;;;0.20;0.20;;;;;;;;;;4801560;29;20500;-80
2023/03/16 16:05:48;;;;;;;0.10;0.10;;;;;;;;;;4798392;29;20051;-79
2023/03/16 16:08:14;;;;;;;0.20;0.20;;;;;;;;;;4798961;29;20089;-80
2023/03/16 16:10:41;;;;;;;0.13;0.13;;;;;;;;;;4785536;29;20043;-79
2023/03/16 16:13:33;;;;;;;0.10;0.10;;;;;;;;;;4799610;29;20424;-80
2023/03/16 16:16:00;;;;;;;0.10;0.10;;;;;;;;;;4773070;29;20066;-81
2023/03/16 16:18:35;;;;;;;0.10;0.10;;;;;;;;;;4797926;29;20473;-80
2023/03/16 16:21:05;;;;;;;0.17;0.17;;;;;;;;;;4786701;29;20389;-81
2023/03/16 16:23:31;;;;;;;0.10;0.10;;;;;;;;;;4785964;29;20473;-80
2023/03/16 16:26:02;;;;;;;0.20;0.20;;;;;;;;;;4782972;30;20055;-81
2023/03/16 16:28:30;;;;;;;0.15;0.15;;;;;;;;;;4777533;29;20053;-80
2023/03/16 16:30:56;;;;;;;0.15;0.15;;;;;;;;;;4799899;29;20137;-81
2023/03/16 16:33:23;;;;;;;0.10;0.10;;;;;;;;;;4785858;29;20116;-79
2023/03/16 16:35:50;;;;;;;0.10;0.10;;;;;;;;;;4797440;29;20166;-79
2023/03/16 16:38:16;;;;;;;0.10;0.10;;;;;;;;;;4785114;29;20069;-80
2023/03/16 16:40:46;;;;;;;0.20;0.20;;;;;;;;;;4801068;29;20055;-80
2023/03/16 16:43:31;;;;;;;0.20;0.20;;;;;;;;;;4783890;29;20755;-80
2023/03/16 16:45:58;;;;;;;0.10;0.10;;;;;;;;;;4786442;29;20058;-80
2023/03/16 16:48:31;;;;;;;0.20;0.20;;;;;;;;;;4801969;29;20424;-80
2023/03/16 16:50:57;;;;;;;0.17;0.17;;;;;;;;;;4797760;29;20400;-79
2023/03/16 16:53:24;;;;;;;0.20;0.20;;;;;;;;;;4802202;29;20531;-80
2023/03/16 16:56:02;;;;;;;0.10;0.10;;;;;;;;;;4788439;29;20420;-81
2023/03/16 16:58:29;;;;;;;0.15;0.15;;;;;;;;;;4788676;29;20059;-80
2023/03/16 17:00:57;;;;;;;0.10;0.10;;;;;;;;;;4778574;29;20531;-92
2023/03/16 17:54:56;;;;;;;0.10;0.10;;;;;;;;;;5894798;23;20028;-82
2023/03/16 22:06:21;;;;;;;0.10;0.10;;;;;;;;;;5722837;23;20097;-81
2023/03/16 22:08:48;;;;;;;0.10;0.10;;;;;;;;;;4841391;29;20409;-78
2023/03/16 22:11:18;;;;;;;0.15;0.15;;;;;;;;;;4840974;29;20374;-77
2023/03/16 22:13:45;;;;;;;0.17;0.17;;;;;;;;;;4831587;29;20069;-76
2023/03/16 22:16:19;;;;;;;0.10;0.10;;;;;;;;;;4838529;29;20052;-76
2023/03/16 22:18:46;;;;;;;0.20;0.20;;;;;;;;;;4852193;29;20499;-77
2023/03/16 22:21:12;;;;;;;0.20;0.20;;;;;;;;;;4856275;29;20052;-77
2023/03/16 22:23:39;;;;;;;0.13;0.13;;;;;;;;;;4841025;29;20494;-77
2023/03/16 22:26:09;;;;;;;0.20;0.20;;;;;;;;;;4839023;29;20137;-77
2023/03/16 22:28:35;;;;;;;0.20;0.20;;;;;;;;;;4835909;29;20133;-77
2023/03/16 22:31:03;;;;;;;0.10;0.10;;;;;;;;;;4842092;29;20101;-76
2023/03/16 22:33:34;;;;;;;0.10;0.10;;;;;;;;;;4842220;29;20080;-77
2023/03/16 22:36:05;;;;;;;0.13;0.13;;;;;;;;;;4842521;29;20502;-77
2023/03/16 22:38:31;;;;;;;0.20;0.20;;;;;;;;;;4839500;29;20059;-77
2023/03/16 22:40:58;;;;;;;0.20;0.20;;;;;;;;;;4835124;29;20498;-76
2023/03/16 22:43:29;;;;;;;0.20;0.20;;;;;;;;;;4836231;29;20126;-77
2023/03/16 22:45:55;;;;;;;0.10;0.10;;;;;;;;;;4828509;29;20050;-79
2023/03/16 22:48:23;;;;;;;0.20;0.20;;;;;;;;;;4845933;29;20095;-76
2023/03/16 22:50:49;;;;;;;0.15;0.15;;;;;;;;;;4848850;29;20046;-76
2023/03/16 22:53:20;;;;;;;0.20;0.20;;;;;;;;;;4859337;29;20054;-77
2023/03/16 22:55:46;;;;;;;0.20;0.20;;;;;;;;;;4862073;29;20050;-76
2023/03/16 22:58:27;;;;;;;0.20;0.20;;;;;;;;;;4857132;29;20100;-77
2023/03/16 23:00:54;;;;;;;0.17;0.17;;;;;;;;;;4839818;29;20061;-76
2023/03/16 23:03:21;;;;;;;0.20;0.20;;;;;;;;;;4840648;29;20061;-77
2023/03/16 23:05:53;;;;;;;0.10;0.10;;;;;;;;;;4856079;29;20041;-76
2023/03/16 23:08:21;;;;;;;0.20;0.20;;;;;;;;;;4857427;29;20109;-77
2023/03/16 23:10:48;;;;;;;0.20;0.20;;;;;;;;;;4857640;29;20045;-77
2023/03/16 23:13:16;;;;;;;0.20;0.20;;;;;;;;;;4840285;29;20053;-77
2023/03/16 23:15:44;;;;;;;0.20;0.20;;;;;;;;;;4856135;29;20053;-75
2023/03/16 23:18:16;;;;;;;0.20;0.20;;;;;;;;;;4840384;29;20044;-76
2023/03/16 23:20:43;;;;;;;0.20;0.20;;;;;;;;;;4840978;29;20553;-79
2023/03/16 23:23:09;;;;;;;0.20;0.20;;;;;;;;;;4857215;29;20463;-76
2023/03/16 23:25:35;;;;;;;0.20;0.20;;;;;;;;;;4841120;29;20052;-77
2023/03/16 23:28:02;;;;;;;0.10;0.10;;;;;;;;;;4831383;29;20410;-77
2023/03/16 23:30:28;;;;;;;0.20;0.20;;;;;;;;;;4842110;29;20050;-77
2023/03/16 23:32:55;;;;;;;0.20;0.20;;;;;;;;;;4852404;29;20073;-77
2023/03/16 23:35:29;;;;;;;0.20;0.20;;;;;;;;;;4840751;29;20494;-77
2023/03/16 23:37:55;;;;;;;0.20;0.20;;;;;;;;;;4837203;29;20103;-77
2023/03/16 23:40:22;;;;;;;0.20;0.20;;;;;;;;;;4838270;29;20077;-76
2023/03/16 23:42:49;;;;;;;0.20;0.20;;;;;;;;;;4834369;29;20138;-77
2023/03/16 23:45:27;;;;;;;0.20;0.20;;;;;;;;;;4857883;29;20049;-77
2023/03/16 23:47:56;;;;;;;0.10;0.10;;;;;;;;;;4854741;29;20053;-77
2023/03/16 23:50:26;;;;;;;0.20;0.20;;;;;;;;;;4840152;29;20053;-76
2023/03/16 23:52:53;;;;;;;0.20;0.20;;;;;;;;;;4840064;29;20053;-76
2023/03/16 23:55:19;;;;;;;0.20;0.20;;;;;;;;;;4826450;29;20660;-77
2023/03/16 23:57:45;;;;;;;0.20;0.20;;;;;;;;;;4842623;29;20051;-77
